createdAt,value
2023-02-19T00:01:28.415Z,5.90
2023-02-19T00:03:00.015Z,5.57
2023-02-19T00:04:31.741Z,4.65
2023-02-19T00:06:06.079Z,5.90
2023-02-19T00:07:37.713Z,6.63
2023-02-19T00:09:11.340Z,5.60
2023-02-19T00:10:42.922Z,8.93
2023-02-19T00:12:14.513Z,8.05
2023-02-19T00:13:48.414Z,6.05
2023-02-19T00:15:20.068Z,8.00
2023-02-19T00:16:51.692Z,6.63
2023-02-19T00:18:26.147Z,6.00
2023-02-19T00:19:57.845Z,6.07
2023-02-19T00:21:29.841Z,6.50
2023-02-19T00:23:01.493Z,7.32
2023-02-19T00:24:33.116Z,7.68
2023-02-19T00:26:18.420Z,6.20
2023-02-19T00:27:52.050Z,8.90
2023-02-19T00:29:25.070Z,5.05
2023-02-19T00:30:56.926Z,4.97
2023-02-19T00:32:28.620Z,6.00
2023-02-19T00:34:05.502Z,7.13
2023-02-19T00:35:37.110Z,5.93
2023-02-19T00:37:08.670Z,5.13
2023-02-19T00:38:42.365Z,8.40
2023-02-19T00:40:14.202Z,5.80
2023-02-19T00:41:46.484Z,8.20
2023-02-19T00:43:18.374Z,6.63
2023-02-19T00:44:49.971Z,5.63
2023-02-19T00:46:25.372Z,6.20
2023-02-19T00:47:57.042Z,8.80
2023-02-19T00:49:29.671Z,5.90
2023-02-19T00:51:01.286Z,7.07
2023-02-19T00:52:32.870Z,6.63
2023-02-19T00:54:05.678Z,7.28
2023-02-19T00:55:37.326Z,9.63
2023-02-19T00:57:09.213Z,5.40
2023-02-19T00:58:41.214Z,6.72
2023-02-19T01:00:13.339Z,7.15
2023-02-19T01:01:45.554Z,5.80
2023-02-19T01:03:17.253Z,9.00
2023-02-19T01:04:48.931Z,5.25
2023-02-19T01:06:21.770Z,6.25
2023-02-19T01:07:53.399Z,6.97
2023-02-19T01:09:25.043Z,5.95
2023-02-19T01:10:57.181Z,5.97
2023-02-19T01:12:28.854Z,4.40
2023-02-19T01:14:01.976Z,6.85
2023-02-19T01:15:34.049Z,6.65
2023-02-19T01:17:05.741Z,6.70
2023-02-19T01:18:37.359Z,7.38
2023-02-19T01:20:09.456Z,5.97
2023-02-19T01:21:41.735Z,5.00
2023-02-19T01:23:14.616Z,5.20
2023-02-19T01:24:46.279Z,8.23
2023-02-19T01:26:20.598Z,5.60
2023-02-19T01:27:52.325Z,6.65
2023-02-19T01:29:23.889Z,6.13
2023-02-19T01:30:55.601Z,6.43
2023-02-19T01:32:27.245Z,9.15
2023-02-19T01:34:01.152Z,6.25
2023-02-19T01:35:32.853Z,5.22
2023-02-19T01:37:04.538Z,5.93
2023-02-19T01:38:36.176Z,7.07
2023-02-19T01:40:08.120Z,5.88
2023-02-19T01:41:41.366Z,5.13
2023-02-19T01:43:16.548Z,5.03
2023-02-19T01:44:48.174Z,5.95
2023-02-19T01:46:19.976Z,6.45
2023-02-19T01:48:12.117Z,5.65
2023-02-19T01:49:54.969Z,8.00
2023-02-19T01:51:27.827Z,7.32
2023-02-19T01:53:04.351Z,6.30
2023-02-19T01:54:38.595Z,6.28
2023-02-19T01:56:15.776Z,5.20
2023-02-19T01:57:52.901Z,5.38
2023-02-19T01:59:24.857Z,5.07
2023-02-19T02:00:56.874Z,5.55
2023-02-19T02:02:28.726Z,5.03
2023-02-19T02:04:00.992Z,4.82
2023-02-19T02:06:03.029Z,5.10
2023-02-19T02:07:53.451Z,7.28
2023-02-19T02:09:47.218Z,5.40
2023-02-19T02:11:20.262Z,4.88
2023-02-19T02:12:56.251Z,4.85
2023-02-19T02:14:31.412Z,4.72
2023-02-19T02:16:02.946Z,5.35
2023-02-19T02:17:55.960Z,5.22
2023-02-19T02:19:39.746Z,4.22
2023-02-19T02:21:27.407Z,4.53
2023-02-19T02:23:24.045Z,4.55
2023-02-19T02:25:28.577Z,5.25
2023-02-19T02:27:45.122Z,4.68
2023-02-19T02:29:38.874Z,4.05
2023-02-19T02:31:39.072Z,4.68
2023-02-19T02:33:44.664Z,4.60
2023-02-19T02:35:19.316Z,5.40
2023-02-19T02:36:55.788Z,5.25
2023-02-19T02:38:30.027Z,4.90
2023-02-19T02:40:03.809Z,5.30
2023-02-19T02:41:42.692Z,4.07
2023-02-19T02:43:14.969Z,4.97
2023-02-19T02:45:06.664Z,4.43
2023-02-19T02:48:35.342Z,3.50
2023-02-19T02:50:13.496Z,3.92
2023-02-19T02:51:50.934Z,4.80
2023-02-19T02:53:54.193Z,4.63
2023-02-19T02:55:29.905Z,3.92
2023-02-19T02:57:02.213Z,5.38
2023-02-19T02:58:38.115Z,4.32
2023-02-19T03:00:11.977Z,4.07
2023-02-19T03:02:02.372Z,3.85
2023-02-19T03:03:38.562Z,5.00
2023-02-19T03:05:34.171Z,4.03
2023-02-19T03:07:09.310Z,4.53
2023-02-19T03:08:54.006Z,3.70
2023-02-19T03:10:33.956Z,4.38
2023-02-19T03:12:31.960Z,3.97
2023-02-19T03:14:48.098Z,3.92
2023-02-19T03:16:46.977Z,4.72
2023-02-19T03:18:38.303Z,3.65
2023-02-19T03:20:13.899Z,3.80
2023-02-19T03:21:59.251Z,4.00
2023-02-19T03:23:52.115Z,4.57
2023-02-19T03:25:46.332Z,4.18
2023-02-19T03:27:25.092Z,5.43
2023-02-19T03:29:19.430Z,4.55
2023-02-19T03:30:53.565Z,6.45
2023-02-19T03:32:36.698Z,4.90
2023-02-19T03:34:17.240Z,4.38
2023-02-19T03:36:05.440Z,4.78
2023-02-19T03:37:47.253Z,3.80
2023-02-19T03:39:22.607Z,5.05
2023-02-19T03:40:57.195Z,4.68
2023-02-19T03:42:42.503Z,4.50
2023-02-19T03:44:36.561Z,4.47
2023-02-19T03:46:08.472Z,3.53
2023-02-19T03:47:55.144Z,5.38
2023-02-19T03:49:33.328Z,4.03
2023-02-19T03:51:09.621Z,4.18
2023-02-19T03:52:49.954Z,4.13
2023-02-19T03:54:46.428Z,4.28
2023-02-19T03:56:17.950Z,4.43
2023-02-19T03:58:13.378Z,6.80
2023-02-19T04:00:01.835Z,4.90
2023-02-19T04:01:52.501Z,4.07
2023-02-19T04:03:39.750Z,4.63
2023-02-19T04:05:18.825Z,4.55
2023-02-19T04:06:55.592Z,4.60
2023-02-19T04:08:28.314Z,4.45
2023-02-19T04:10:09.217Z,4.00
2023-02-19T04:11:45.587Z,5.40
2023-02-19T04:13:30.494Z,4.55
2023-02-19T04:15:14.459Z,4.65
2023-02-19T04:16:50.877Z,3.42
2023-02-19T04:18:26.655Z,5.03
2023-02-19T04:20:00.933Z,3.50
2023-02-19T04:21:34.854Z,4.43
2023-02-19T04:23:07.000Z,4.10
2023-02-19T04:24:47.716Z,3.75
2023-02-19T04:26:22.667Z,5.10
2023-02-19T04:27:54.703Z,5.22
2023-02-19T04:29:26.304Z,5.25
2023-02-19T04:30:57.889Z,5.10
2023-02-19T04:32:29.522Z,5.13
2023-02-19T04:34:02.437Z,3.25
2023-02-19T04:35:34.055Z,3.65
2023-02-19T04:37:06.530Z,5.00
2023-02-19T04:38:38.386Z,4.53
2023-02-19T04:40:10.671Z,3.78
2023-02-19T04:41:42.221Z,4.88
2023-02-19T04:43:13.861Z,3.45
2023-02-19T04:44:45.564Z,4.53
2023-02-19T04:46:17.371Z,3.50
2023-02-19T04:47:49.053Z,4.75
2023-02-19T04:49:20.742Z,4.25
2023-02-19T04:50:52.402Z,4.10
2023-02-19T04:52:24.084Z,4.70
2023-02-19T04:53:56.392Z,2.95
2023-02-19T04:55:28.009Z,3.55
2023-02-19T04:56:59.676Z,4.30
2023-02-19T04:58:31.382Z,3.50
2023-02-19T05:00:04.706Z,4.10
2023-02-19T05:01:36.350Z,4.68
2023-02-19T05:03:07.944Z,6.28
2023-02-19T05:04:39.500Z,4.30
2023-02-19T05:06:13.514Z,5.55
2023-02-19T05:07:45.188Z,4.45
2023-02-19T05:09:16.733Z,3.20
2023-02-19T05:10:48.361Z,3.30
2023-02-19T05:12:19.873Z,4.50
2023-02-19T05:13:51.573Z,4.07
2023-02-19T05:15:23.133Z,4.05
2023-02-19T05:16:54.730Z,3.78
2023-02-19T05:18:26.501Z,5.80
2023-02-19T05:19:58.074Z,3.90
2023-02-19T05:21:29.686Z,3.72
2023-02-19T05:23:01.247Z,4.63
2023-02-19T05:24:32.922Z,4.25
2023-02-19T05:26:09.963Z,3.95
2023-02-19T05:27:41.563Z,4.45
2023-02-19T05:29:13.139Z,3.85
2023-02-19T05:30:52.536Z,3.97
2023-02-19T05:32:24.234Z,5.45
2023-02-19T05:33:56.516Z,3.55
2023-02-19T05:35:28.154Z,3.80
2023-02-19T05:36:59.737Z,3.47
2023-02-19T05:38:31.363Z,3.83
2023-02-19T05:40:03.105Z,3.63
2023-02-19T05:41:34.782Z,4.03
2023-02-19T05:43:07.483Z,4.55
2023-02-19T05:44:39.087Z,4.28
2023-02-19T05:46:13.018Z,3.50
2023-02-19T05:47:44.560Z,2.95
2023-02-19T05:49:16.194Z,4.03
2023-02-19T05:50:47.804Z,3.72
2023-02-19T05:52:19.416Z,3.22
2023-02-19T05:53:51.337Z,4.32
2023-02-19T05:55:22.978Z,2.70
2023-02-19T05:56:54.708Z,6.93
2023-02-19T05:58:27.005Z,4.30
2023-02-19T05:59:58.627Z,3.88
2023-02-19T06:01:31.209Z,3.08
2023-02-19T06:03:02.841Z,3.03
2023-02-19T06:04:34.500Z,3.38
2023-02-19T06:06:06.365Z,4.50
2023-02-19T06:07:42.834Z,4.55
2023-02-19T06:09:14.468Z,3.88
2023-02-19T06:10:46.148Z,3.78
2023-02-19T06:12:17.749Z,3.20
2023-02-19T06:13:52.295Z,3.47
2023-02-19T06:15:24.021Z,3.65
2023-02-19T06:16:55.739Z,2.97
2023-02-19T06:18:27.279Z,4.10
2023-02-19T06:19:59.009Z,4.15
2023-02-19T06:21:30.753Z,3.65
2023-02-19T06:23:02.382Z,3.08
2023-02-19T06:24:34.296Z,3.13
2023-02-19T06:26:11.824Z,3.20
2023-02-19T06:27:43.441Z,3.15
2023-02-19T06:29:16.561Z,5.05
2023-02-19T06:30:50.104Z,4.30
2023-02-19T06:32:23.425Z,3.10
2023-02-19T06:33:55.353Z,3.70
2023-02-19T06:35:26.963Z,5.03
2023-02-19T06:36:59.033Z,3.35
2023-02-19T06:38:31.203Z,4.68
2023-02-19T06:40:02.870Z,2.60
2023-02-19T06:41:34.498Z,2.88
2023-02-19T06:43:06.124Z,2.47
2023-02-19T06:44:37.772Z,3.08
2023-02-19T06:46:12.904Z,2.47
2023-02-19T06:47:44.719Z,2.08
2023-02-19T06:49:16.595Z,2.45
2023-02-19T06:50:48.157Z,1.85
2023-02-19T06:52:19.885Z,3.25
2023-02-19T06:53:51.532Z,2.08
2023-02-19T06:55:23.165Z,2.38
2023-02-19T06:56:57.134Z,2.08
2023-02-19T06:58:29.279Z,1.67
2023-02-19T07:00:00.938Z,1.50
2023-02-19T07:01:34.122Z,1.55
2023-02-19T07:03:05.763Z,1.63
2023-02-19T07:04:37.376Z,1.65
2023-02-19T07:06:09.289Z,1.83
2023-02-19T07:07:40.873Z,1.60
2023-02-19T07:09:12.621Z,2.70
2023-02-19T07:10:45.707Z,2.28
2023-02-19T07:12:17.270Z,2.00
2023-02-19T07:13:53.852Z,2.15
2023-02-19T07:15:25.510Z,1.90
2023-02-19T07:16:57.169Z,1.63
2023-02-19T07:18:30.507Z,1.50
2023-02-19T07:20:02.325Z,1.42
2023-02-19T07:21:37.665Z,2.63
2023-02-19T07:23:09.410Z,2.35
2023-02-19T07:24:41.024Z,1.67
2023-02-19T07:26:18.094Z,1.85
2023-02-19T07:27:49.729Z,2.20
2023-02-19T07:29:21.393Z,1.90
2023-02-19T07:30:53.473Z,2.03
2023-02-19T07:32:25.351Z,1.65
2023-02-19T07:33:57.243Z,1.98
2023-02-19T07:35:28.882Z,1.90
2023-02-19T07:37:00.681Z,2.17
2023-02-19T07:38:32.341Z,2.00
2023-02-19T07:40:04.493Z,1.83
2023-02-19T07:41:36.124Z,1.45
2023-02-19T07:43:07.840Z,1.52
2023-02-19T07:44:39.491Z,1.75
2023-02-19T07:46:13.076Z,1.70
2023-02-19T07:47:44.879Z,2.00
2023-02-19T07:49:16.639Z,2.05
2023-02-19T07:50:52.475Z,2.63
2023-02-19T07:52:24.370Z,1.95
2023-02-19T07:53:56.051Z,2.70
2023-02-19T07:55:27.712Z,2.17
2023-02-19T07:56:59.759Z,2.30
2023-02-19T07:58:32.361Z,2.05
2023-02-19T08:00:04.434Z,1.92
2023-02-19T08:02:02.897Z,2.00
2023-02-19T08:03:35.640Z,2.30
2023-02-19T08:05:08.164Z,2.22
2023-02-19T08:06:40.884Z,2.25
2023-02-19T08:08:14.577Z,2.95
2023-02-19T08:10:06.133Z,1.83
2023-02-19T08:11:55.999Z,2.20
2023-02-19T08:13:30.823Z,2.53
2023-02-19T08:15:02.513Z,3.13
2023-02-19T08:16:42.885Z,2.63
2023-02-19T08:18:16.746Z,2.10
2023-02-19T08:19:48.401Z,2.38
2023-02-19T08:21:20.665Z,1.73
2023-02-19T08:22:52.302Z,2.22
2023-02-19T08:24:24.007Z,1.70
2023-02-19T08:25:58.779Z,1.42
2023-02-19T08:27:30.450Z,2.15
2023-02-19T08:29:02.738Z,2.25
2023-02-19T08:30:35.517Z,1.85
2023-02-19T08:32:07.304Z,5.95
2023-02-19T08:33:40.259Z,3.38
2023-02-19T08:35:11.903Z,2.47
2023-02-19T08:36:44.216Z,3.08
2023-02-19T08:38:16.543Z,3.15
2023-02-19T08:39:48.155Z,3.05
2023-02-19T08:41:19.805Z,2.50
2023-02-19T08:42:51.644Z,2.60
2023-02-19T08:44:23.313Z,2.30
2023-02-19T08:45:55.580Z,2.90
2023-02-19T08:47:27.265Z,1.92
2023-02-19T08:48:58.862Z,2.72
2023-02-19T08:50:30.850Z,2.72
2023-02-19T08:52:02.534Z,2.50
2023-02-19T08:53:35.786Z,2.20
2023-02-19T08:55:07.568Z,2.60
2023-02-19T08:56:39.275Z,2.60
2023-02-19T08:58:11.290Z,4.10
2023-02-19T08:59:42.887Z,5.07
2023-02-19T09:01:18.356Z,2.67
2023-02-19T09:02:50.690Z,1.52
2023-02-19T09:04:22.306Z,2.70
2023-02-19T09:05:53.924Z,1.75
2023-02-19T09:07:25.679Z,3.63
2023-02-19T09:08:57.398Z,2.65
2023-02-19T09:10:29.136Z,1.95
2023-02-19T09:12:00.789Z,2.83
2023-02-19T09:13:32.975Z,2.70
2023-02-19T09:15:05.842Z,2.30
2023-02-19T09:16:37.447Z,2.38
2023-02-19T09:18:09.114Z,2.13
2023-02-19T09:19:40.780Z,1.92
2023-02-19T09:21:12.778Z,2.60
2023-02-19T09:22:44.734Z,2.40
2023-02-19T09:24:16.383Z,2.53
2023-02-19T09:25:48.034Z,1.90
2023-02-19T09:27:20.398Z,2.70
2023-02-19T09:28:52.081Z,2.17
2023-02-19T09:30:24.757Z,2.45
2023-02-19T09:31:58.300Z,5.28
2023-02-19T09:33:30.287Z,4.70
2023-02-19T09:35:01.866Z,3.35
2023-02-19T09:36:33.570Z,4.55
2023-02-19T09:38:05.292Z,2.50
2023-02-19T09:39:37.066Z,3.35
2023-02-19T09:41:27.547Z,2.80
2023-02-19T09:43:00.962Z,3.20
2023-02-19T09:44:37.774Z,3.60
2023-02-19T09:47:58.205Z,4.90
2023-02-19T09:49:35.427Z,5.82
2023-02-19T09:51:11.157Z,2.67
2023-02-19T09:52:54.994Z,3.97
2023-02-19T09:54:29.758Z,3.47
2023-02-19T09:56:01.639Z,3.30
2023-02-19T09:57:36.120Z,2.70
2023-02-19T09:59:22.095Z,3.35
2023-02-19T10:00:56.900Z,2.78
2023-02-19T10:02:30.886Z,4.07
2023-02-19T10:04:03.995Z,2.95
2023-02-19T10:05:35.889Z,4.10
2023-02-19T10:07:13.302Z,4.45
2023-02-19T10:08:46.040Z,3.45
2023-02-19T10:10:37.947Z,2.33
2023-02-19T10:12:19.300Z,2.22
2023-02-19T10:14:09.369Z,2.20
2023-02-19T10:15:53.545Z,2.35
2023-02-19T10:17:29.638Z,2.80
2023-02-19T10:19:01.467Z,2.60
2023-02-19T10:20:33.820Z,2.13
2023-02-19T10:22:05.767Z,2.22
2023-02-19T10:23:39.437Z,2.80
2023-02-19T10:25:17.288Z,2.83
2023-02-19T10:26:50.285Z,2.92
2023-02-19T10:28:26.222Z,2.72
2023-02-19T10:31:33.383Z,3.20
2023-02-19T10:33:05.307Z,3.45
2023-02-19T10:34:36.932Z,3.58
2023-02-19T10:36:24.900Z,4.45
2023-02-19T10:37:57.553Z,3.80
2023-02-19T10:39:42.282Z,2.92
2023-02-19T10:41:15.452Z,2.90
2023-02-19T10:42:49.247Z,2.40
2023-02-19T10:44:28.043Z,2.45
2023-02-19T10:46:31.264Z,6.30
2023-02-19T10:48:03.785Z,3.20
2023-02-19T10:49:43.393Z,2.92
2023-02-19T10:51:20.870Z,3.75
2023-02-19T10:52:55.872Z,2.63
2023-02-19T10:54:31.226Z,3.55
2023-02-19T10:56:07.684Z,2.67
2023-02-19T10:57:40.498Z,3.92
2023-02-19T10:59:18.384Z,3.35
2023-02-19T11:01:12.954Z,7.00
2023-02-19T11:02:45.541Z,6.55
2023-02-19T11:04:19.838Z,5.07
2023-02-19T11:05:59.995Z,4.63
2023-02-19T11:07:32.412Z,3.45
2023-02-19T11:09:04.602Z,4.68
2023-02-19T11:10:42.404Z,3.90
2023-02-19T11:12:23.503Z,4.90
2023-02-19T11:13:57.327Z,4.35
2023-02-19T11:15:33.520Z,4.28
2023-02-19T11:17:05.932Z,3.15
2023-02-19T11:18:38.630Z,2.83
2023-02-19T11:20:17.743Z,3.83
2023-02-19T11:21:50.273Z,2.85
2023-02-19T11:23:31.544Z,3.03
2023-02-19T11:25:05.948Z,5.22
2023-02-19T11:26:38.276Z,4.75
2023-02-19T11:28:20.054Z,5.35
2023-02-19T11:29:51.892Z,5.45
2023-02-19T11:31:35.865Z,4.75
2023-02-19T11:33:16.205Z,7.40
2023-02-19T11:34:48.556Z,3.22
2023-02-19T11:36:20.241Z,3.80
2023-02-19T11:37:56.825Z,3.20
2023-02-19T11:39:31.211Z,6.10
2023-02-19T11:41:31.835Z,3.83
2023-02-19T11:43:26.392Z,5.20
2023-02-19T11:45:15.874Z,4.28
2023-02-19T11:46:53.780Z,5.03
2023-02-19T11:48:48.365Z,4.18
2023-02-19T11:50:42.897Z,5.65
2023-02-19T11:52:32.335Z,5.07
2023-02-19T11:54:04.130Z,5.22
2023-02-19T11:55:57.254Z,4.72
2023-02-19T11:57:36.057Z,3.90
2023-02-19T11:59:21.133Z,3.72
2023-02-19T12:01:05.713Z,5.45
2023-02-19T12:02:47.424Z,5.63
2023-02-19T12:04:38.013Z,3.45
2023-02-19T12:06:25.806Z,3.60
2023-02-19T12:08:15.954Z,4.15
2023-02-19T12:10:09.216Z,4.80
2023-02-19T12:12:10.302Z,6.93
2023-02-19T12:14:08.919Z,7.20
2023-02-19T12:16:29.851Z,7.63
2023-02-19T12:18:16.186Z,3.92
2023-02-19T12:20:06.679Z,5.20
2023-02-19T12:21:50.808Z,4.30
2023-02-19T12:23:41.090Z,5.63
2023-02-19T12:25:38.556Z,3.58
2023-02-19T12:27:25.390Z,4.43
2023-02-19T12:29:11.987Z,2.95
2023-02-19T12:30:51.749Z,4.32
2023-02-19T12:32:46.591Z,5.35
2023-02-19T12:36:35.836Z,4.07
2023-02-19T12:38:32.594Z,3.83
2023-02-19T12:40:33.395Z,4.03
2023-02-19T12:42:14.150Z,3.60
2023-02-19T12:44:01.649Z,4.03
2023-02-19T12:45:45.222Z,5.72
2023-02-19T12:47:25.890Z,5.80
2023-02-19T12:49:25.487Z,5.03
2023-02-19T12:51:05.588Z,3.97
2023-02-19T12:52:42.156Z,4.03
2023-02-19T12:54:46.116Z,4.75
2023-02-19T12:56:25.317Z,2.67
2023-02-19T12:58:01.464Z,5.30
2023-02-19T13:00:00.156Z,5.03
2023-02-19T13:01:43.226Z,5.18
2023-02-19T13:03:21.083Z,4.90
2023-02-19T13:05:11.526Z,5.78
2023-02-19T13:06:51.691Z,5.85
2023-02-19T13:08:35.625Z,4.53
2023-02-19T13:10:10.882Z,5.13
2023-02-19T13:11:53.440Z,6.00
2023-02-19T13:13:32.689Z,3.58
2023-02-19T13:15:10.095Z,4.63
2023-02-19T13:16:46.745Z,3.88
2023-02-19T13:18:24.112Z,3.28
2023-02-19T13:20:01.611Z,7.07
2023-02-19T13:21:56.645Z,3.85
2023-02-19T13:23:51.629Z,6.70
2023-02-19T13:27:31.615Z,3.80
2023-02-19T13:29:18.356Z,4.07
2023-02-19T13:31:14.235Z,4.15
2023-02-19T13:33:23.740Z,2.25
2023-02-19T13:35:22.883Z,3.55
2023-02-19T13:36:55.871Z,2.63
2023-02-19T13:38:28.182Z,4.38
2023-02-19T13:40:06.280Z,4.75
2023-02-19T13:41:49.025Z,3.63
2023-02-19T13:43:39.126Z,3.90
2023-02-19T13:45:23.010Z,5.63
2023-02-19T13:46:54.700Z,3.42
2023-02-19T13:48:34.118Z,3.20
2023-02-19T13:50:09.005Z,4.72
2023-02-19T13:51:49.583Z,6.85
2023-02-19T13:53:46.036Z,3.67
2023-02-19T13:55:42.814Z,4.50
2023-02-19T13:57:23.288Z,5.13
2023-02-19T13:58:58.681Z,5.15
2023-02-19T14:00:52.183Z,2.67
2023-02-19T14:02:26.767Z,5.18
2023-02-19T14:04:18.649Z,5.80
2023-02-19T14:06:02.660Z,6.07
2023-02-19T14:07:36.279Z,2.83
2023-02-19T14:09:37.053Z,6.53
2023-02-19T14:11:09.068Z,7.53
2023-02-19T14:12:41.056Z,6.00
2023-02-19T14:14:28.380Z,4.85
2023-02-19T14:16:00.288Z,3.13
2023-02-19T14:17:45.754Z,4.40
2023-02-19T14:19:42.080Z,4.25
2023-02-19T14:21:26.050Z,4.80
2023-02-19T14:23:13.850Z,6.47
2023-02-19T14:24:46.081Z,5.22
2023-02-19T14:26:18.286Z,6.40
2023-02-19T14:27:53.164Z,7.93
2023-02-19T14:29:25.004Z,5.28
2023-02-19T14:30:56.817Z,3.58
2023-02-19T14:32:28.597Z,5.72
2023-02-19T14:34:04.795Z,7.30
2023-02-19T14:35:41.734Z,6.00
2023-02-19T14:37:21.011Z,4.88
2023-02-19T14:39:11.072Z,7.28
2023-02-19T14:40:46.397Z,4.97
2023-02-19T14:42:23.823Z,5.30
2023-02-19T14:43:58.529Z,8.02
2023-02-19T14:45:43.358Z,7.28
2023-02-19T14:47:19.420Z,6.43
2023-02-19T14:48:51.715Z,5.13
2023-02-19T14:50:32.922Z,4.78
2023-02-19T14:52:11.146Z,7.60
2023-02-19T14:53:45.564Z,4.68
2023-02-19T14:55:29.627Z,6.03
2023-02-19T14:57:03.879Z,5.00
2023-02-19T14:58:36.946Z,6.97
2023-02-19T15:00:24.003Z,4.40
2023-02-19T15:02:09.970Z,4.95
2023-02-19T15:03:42.082Z,5.55
2023-02-19T15:05:25.640Z,5.65
2023-02-19T15:07:02.306Z,5.32
2023-02-19T15:08:39.149Z,4.35
2023-02-19T15:10:14.271Z,5.97
2023-02-19T15:11:46.502Z,3.92
2023-02-19T15:13:25.772Z,7.05
2023-02-19T15:15:02.960Z,6.55
2023-02-19T15:16:36.594Z,7.80
2023-02-19T15:18:08.444Z,7.03
2023-02-19T15:19:43.353Z,4.57
2023-02-19T15:21:24.734Z,4.72
2023-02-19T15:22:58.731Z,5.93
2023-02-19T15:24:32.795Z,6.10
2023-02-19T15:26:04.746Z,5.38
2023-02-19T15:27:37.426Z,4.50
2023-02-19T15:29:14.581Z,6.63
2023-02-19T15:30:46.516Z,4.85
2023-02-19T15:32:22.713Z,4.70
2023-02-19T15:33:54.911Z,6.13
2023-02-19T15:35:28.977Z,6.32
2023-02-19T15:37:04.629Z,6.32
2023-02-19T15:38:37.082Z,8.13
2023-02-19T15:40:14.227Z,5.82
2023-02-19T15:41:52.433Z,7.30
2023-02-19T15:43:30.013Z,7.00
2023-02-19T15:45:05.319Z,6.43
2023-02-19T15:46:38.200Z,10.25
2023-02-19T15:48:16.436Z,7.68
2023-02-19T15:50:20.404Z,7.90
2023-02-19T15:52:05.803Z,7.85
2023-02-19T15:53:45.561Z,3.30
2023-02-19T15:55:39.248Z,6.25
2023-02-19T15:57:17.348Z,8.48
2023-02-19T15:58:54.055Z,8.73
2023-02-19T16:00:40.155Z,4.72
2023-02-19T16:02:14.407Z,4.15
2023-02-19T16:03:48.076Z,9.18
2023-02-19T16:05:26.706Z,5.68
2023-02-19T16:07:01.303Z,8.95
2023-02-19T16:08:35.477Z,6.43
2023-02-19T16:10:23.200Z,6.72
2023-02-19T16:11:58.154Z,5.45
2023-02-19T16:13:32.973Z,5.75
2023-02-19T16:15:15.013Z,3.65
2023-02-19T16:16:50.761Z,4.55
2023-02-19T16:18:22.459Z,6.22
2023-02-19T16:20:01.439Z,7.63
2023-02-19T16:21:33.267Z,8.70
2023-02-19T16:23:14.756Z,6.22
2023-02-19T16:24:50.256Z,8.40
2023-02-19T16:26:22.110Z,5.22
2023-02-19T16:27:54.599Z,8.68
2023-02-19T16:29:30.443Z,7.10
2023-02-19T16:31:05.832Z,7.57
2023-02-19T16:32:37.756Z,7.47
2023-02-19T16:34:30.640Z,5.53
2023-02-19T16:36:32.677Z,4.97
2023-02-19T16:38:13.680Z,7.07
2023-02-19T16:39:45.364Z,8.27
2023-02-19T16:41:17.110Z,8.25
2023-02-19T16:42:48.670Z,5.90
2023-02-19T16:44:30.964Z,5.32
2023-02-19T16:47:41.429Z,5.47
2023-02-19T16:49:13.362Z,8.13
2023-02-19T16:50:46.280Z,7.90
2023-02-19T16:52:18.174Z,8.32
2023-02-19T16:53:49.879Z,5.65
2023-02-19T16:55:22.134Z,5.78
2023-02-19T16:56:53.833Z,10.70
2023-02-19T16:58:26.131Z,7.72
2023-02-19T16:59:57.877Z,8.63
2023-02-19T17:01:30.024Z,5.90
2023-02-19T17:03:09.068Z,10.18
2023-02-19T17:04:40.803Z,10.32
2023-02-19T17:06:13.016Z,7.03
2023-02-19T17:07:44.768Z,7.55
2023-02-19T17:09:16.432Z,6.43
2023-02-19T17:10:48.191Z,13.05
2023-02-19T17:12:23.408Z,14.80
2023-02-19T17:13:55.144Z,19.92
2023-02-19T17:15:26.826Z,21.73
2023-02-19T17:17:00.506Z,20.05
2023-02-19T17:18:33.903Z,21.20
2023-02-19T17:20:17.653Z,15.68
2023-02-19T17:21:49.759Z,14.95
2023-02-19T17:23:22.999Z,15.63
2023-02-19T17:24:56.147Z,18.10
2023-02-19T17:26:29.940Z,18.20
2023-02-19T17:28:01.602Z,21.60
2023-02-19T17:29:36.927Z,21.48
2023-02-19T17:31:11.103Z,19.98
2023-02-19T17:32:42.899Z,14.35
2023-02-19T17:34:14.641Z,12.48
2023-02-19T17:35:46.317Z,10.20
2023-02-19T17:37:17.985Z,9.43
2023-02-19T17:38:49.724Z,9.55
2023-02-19T17:40:33.235Z,9.57
2023-02-19T17:42:06.100Z,10.85
2023-02-19T17:43:37.842Z,9.35
2023-02-19T17:45:09.592Z,13.32
2023-02-19T17:46:41.883Z,14.30
2023-02-19T17:48:14.680Z,12.23
2023-02-19T17:49:46.512Z,10.27
2023-02-19T17:51:18.338Z,8.45
2023-02-19T17:52:50.166Z,8.38
2023-02-19T17:54:21.837Z,10.57
2023-02-19T17:55:53.524Z,10.23
2023-02-19T17:57:26.067Z,8.50
2023-02-19T17:58:58.506Z,11.25
2023-02-19T18:00:31.732Z,8.55
2023-02-19T18:02:03.608Z,9.85
2023-02-19T18:03:35.707Z,8.88
2023-02-19T18:05:07.738Z,5.53
2023-02-19T18:06:39.541Z,6.57
2023-02-19T18:08:11.540Z,8.60
2023-02-19T18:09:43.499Z,10.98
2023-02-19T18:11:15.816Z,6.95
2023-02-19T18:12:47.658Z,5.72
2023-02-19T18:14:19.617Z,4.45
2023-02-19T18:15:51.382Z,8.02
2023-02-19T18:17:24.614Z,7.47
2023-02-19T18:18:58.633Z,5.80
2023-02-19T18:20:31.697Z,6.53
2023-02-19T18:22:05.241Z,6.10
2023-02-19T18:23:38.560Z,6.43
2023-02-19T18:25:11.671Z,8.45
2023-02-19T18:26:43.812Z,7.10
2023-02-19T18:28:16.590Z,5.47
2023-02-19T18:29:52.196Z,6.93
2023-02-19T18:31:24.114Z,5.30
2023-02-19T18:32:55.825Z,6.35
2023-02-19T18:34:27.524Z,8.60
2023-02-19T18:35:59.426Z,9.52
2023-02-19T18:37:32.983Z,8.43
2023-02-19T18:39:04.795Z,7.80
2023-02-19T18:40:36.609Z,7.45
2023-02-19T18:42:08.388Z,9.95
2023-02-19T18:43:43.264Z,7.75
2023-02-19T18:45:14.949Z,6.78
2023-02-19T18:46:46.809Z,7.53
2023-02-19T18:48:18.626Z,5.43
2023-02-19T18:49:52.721Z,9.60
2023-02-19T18:51:24.492Z,7.78
2023-02-19T18:52:56.346Z,9.00
2023-02-19T18:54:29.580Z,6.95
2023-02-19T18:56:02.067Z,8.30
2023-02-19T18:57:33.736Z,8.20
2023-02-19T18:59:05.512Z,7.00
2023-02-19T19:00:37.294Z,6.75
2023-02-19T19:02:10.212Z,11.38
2023-02-19T19:03:41.953Z,8.05
2023-02-19T19:05:13.751Z,9.50
2023-02-19T19:06:45.440Z,10.75
2023-02-19T19:08:17.234Z,9.63
2023-02-19T19:09:49.209Z,13.88
2023-02-19T19:11:22.688Z,9.70
2023-02-19T19:12:54.611Z,8.98
2023-02-19T19:14:26.698Z,8.35
2023-02-19T19:15:58.504Z,9.35
2023-02-19T19:17:30.156Z,15.25
2023-02-19T19:19:02.228Z,10.45
2023-02-19T19:20:34.210Z,12.75
2023-02-19T19:22:05.872Z,11.57
2023-02-19T19:23:37.621Z,13.05
2023-02-19T19:25:09.558Z,9.52
2023-02-19T19:26:48.224Z,11.50
2023-02-19T19:28:20.598Z,10.55
2023-02-19T19:29:52.528Z,9.57
2023-02-19T19:31:25.127Z,10.88
2023-02-19T19:32:57.443Z,10.90
2023-02-19T19:34:29.769Z,10.52
2023-02-19T19:36:01.518Z,13.77
2023-02-19T19:37:33.228Z,10.18
2023-02-19T19:39:05.650Z,10.05
2023-02-19T19:40:37.489Z,10.35
2023-02-19T19:42:09.850Z,10.07
2023-02-19T19:43:41.641Z,8.55
2023-02-19T19:45:13.866Z,10.95
2023-02-19T19:46:45.935Z,10.13
2023-02-19T19:48:17.538Z,9.90
2023-02-19T19:49:49.241Z,10.35
2023-02-19T19:51:21.113Z,8.60
2023-02-19T19:52:52.982Z,9.02
2023-02-19T19:54:24.798Z,7.88
2023-02-19T19:55:56.688Z,8.57
2023-02-19T19:57:28.507Z,7.95
2023-02-19T19:59:00.192Z,6.65
2023-02-19T20:00:31.905Z,9.13
2023-02-19T20:02:03.759Z,8.05
2023-02-19T20:03:35.509Z,8.70
2023-02-19T20:05:07.380Z,7.72
2023-02-19T20:06:39.186Z,13.18
2023-02-19T20:08:10.980Z,11.23
2023-02-19T20:09:46.928Z,6.50
2023-02-19T20:12:50.358Z,10.05
2023-02-19T20:14:24.062Z,8.10
2023-02-19T20:15:56.226Z,8.82
2023-02-19T20:17:28.978Z,9.13
2023-02-19T20:19:00.816Z,7.70
2023-02-19T20:20:32.517Z,7.93
2023-02-19T20:22:04.335Z,11.90
2023-02-19T20:23:38.667Z,11.98
2023-02-19T20:25:11.409Z,20.85
2023-02-19T20:26:44.136Z,11.18
2023-02-19T20:28:16.019Z,11.23
2023-02-19T20:29:48.145Z,11.15
2023-02-19T20:31:20.683Z,9.00
2023-02-19T20:32:53.619Z,12.43
2023-02-19T20:34:26.566Z,7.65
2023-02-19T20:35:58.270Z,9.02
2023-02-19T20:37:29.929Z,5.22
2023-02-19T20:39:01.747Z,8.70
2023-02-19T20:40:33.898Z,7.72
2023-02-19T20:42:06.383Z,7.47
2023-02-19T20:43:38.284Z,9.02
2023-02-19T20:45:10.034Z,6.95
2023-02-19T20:46:46.682Z,8.23
2023-02-19T20:48:18.493Z,9.50
2023-02-19T20:49:51.683Z,10.10
2023-02-19T20:51:23.837Z,8.80
2023-02-19T20:52:55.789Z,8.40
2023-02-19T20:54:30.705Z,6.28
2023-02-19T20:56:02.753Z,6.97
2023-02-19T20:57:34.557Z,7.40
2023-02-19T20:59:06.332Z,9.05
2023-02-19T21:00:38.015Z,10.43
2023-02-19T21:02:17.683Z,10.57
2023-02-19T21:03:49.457Z,6.97
2023-02-19T21:05:21.417Z,10.20
2023-02-19T21:06:53.367Z,10.02
2023-02-19T21:08:25.097Z,9.88
2023-02-19T21:09:57.328Z,6.90
2023-02-19T21:11:29.071Z,10.45
2023-02-19T21:13:00.826Z,12.10
2023-02-19T21:14:32.627Z,8.35
2023-02-19T21:16:04.702Z,9.55
2023-02-19T21:17:36.597Z,7.50
2023-02-19T21:19:08.532Z,8.25
2023-02-19T21:20:40.242Z,6.97
2023-02-19T21:22:12.313Z,6.47
2023-02-19T21:23:44.113Z,8.00
2023-02-19T21:25:15.896Z,8.05
2023-02-19T21:26:47.710Z,6.25
2023-02-19T21:28:19.842Z,9.60
2023-02-19T21:29:51.491Z,6.15
2023-02-19T21:31:25.361Z,9.25